createdAt,value
2023-03-22T00:00:52.997Z,4.10
2023-03-22T00:01:52.999Z,4.10
2023-03-22T00:02:53.103Z,3.60
2023-03-22T00:03:53.114Z,4.80
2023-03-22T00:04:52.962Z,4.00
2023-03-22T00:05:52.944Z,4.10
2023-03-22T00:06:52.938Z,4.20
2023-03-22T00:07:52.938Z,3.80
2023-03-22T00:08:52.908Z,3.60
2023-03-22T00:09:52.910Z,4.30
2023-03-22T00:10:52.886Z,4.00
2023-03-22T00:11:52.881Z,3.90
2023-03-22T00:12:52.862Z,4.60
2023-03-22T00:13:52.878Z,4.80
2023-03-22T00:14:52.852Z,3.80
2023-03-22T00:15:52.858Z,3.80
2023-03-22T00:16:52.840Z,4.00
2023-03-22T00:17:52.808Z,4.30
2023-03-22T00:18:52.835Z,4.60
2023-03-22T00:19:52.800Z,4.40
2023-03-22T00:20:52.788Z,3.80
2023-03-22T00:21:52.772Z,3.70
2023-03-22T00:22:52.760Z,4.10
2023-03-22T00:23:52.751Z,4.20
2023-03-22T00:24:52.743Z,4.20
2023-03-22T00:25:52.730Z,4.00
2023-03-22T00:26:52.712Z,4.10
2023-03-22T00:27:52.698Z,4.10
2023-03-22T00:28:52.692Z,4.00
2023-03-22T00:29:52.709Z,4.00
2023-03-22T00:30:52.677Z,4.30
2023-03-22T00:31:52.700Z,3.70
2023-03-22T00:32:52.657Z,4.70
2023-03-22T00:33:52.634Z,4.00
2023-03-22T00:34:52.648Z,3.90
2023-03-22T00:35:52.680Z,5.30
2023-03-22T00:36:52.618Z,3.60
2023-03-22T00:37:52.604Z,4.40
2023-03-22T00:38:52.596Z,4.30
2023-03-22T00:39:52.577Z,3.80
2023-03-22T00:40:52.564Z,4.40
2023-03-22T00:41:52.578Z,4.20
2023-03-22T00:42:52.584Z,4.30
2023-03-22T00:43:52.568Z,3.50
2023-03-22T00:44:52.522Z,3.60
2023-03-22T00:45:52.568Z,4.30
2023-03-22T00:46:52.500Z,4.10
2023-03-22T00:47:52.526Z,3.90
2023-03-22T00:48:52.487Z,3.90
2023-03-22T00:49:52.476Z,3.80
2023-03-22T00:50:52.460Z,4.00
2023-03-22T00:51:52.439Z,4.00
2023-03-22T00:52:52.434Z,3.90
2023-03-22T00:53:52.432Z,4.20
2023-03-22T00:54:52.420Z,4.00
2023-03-22T00:55:52.402Z,4.10
2023-03-22T00:56:52.395Z,4.00
2023-03-22T00:57:52.378Z,3.50
2023-03-22T00:58:52.370Z,4.00
2023-03-22T00:59:52.354Z,4.40
2023-03-22T01:00:52.421Z,3.80
2023-03-22T01:01:52.339Z,5.00
2023-03-22T01:02:52.325Z,3.70
2023-03-22T01:03:52.396Z,4.40
2023-03-22T01:04:52.314Z,4.60
2023-03-22T01:05:52.299Z,3.90
2023-03-22T01:06:52.279Z,4.20
2023-03-22T01:07:52.267Z,4.20
2023-03-22T01:08:52.258Z,4.20
2023-03-22T01:09:52.257Z,5.10
2023-03-22T01:10:52.251Z,4.00
2023-03-22T01:11:52.228Z,4.30
2023-03-22T01:12:52.214Z,3.70
2023-03-22T01:13:52.200Z,4.10
2023-03-22T01:14:52.204Z,4.00
2023-03-22T01:15:52.182Z,4.40
2023-03-22T01:16:52.221Z,4.30
2023-03-22T01:17:52.156Z,3.70
2023-03-22T01:18:52.152Z,3.50
2023-03-22T01:19:52.142Z,4.40
2023-03-22T01:20:52.129Z,4.10
2023-03-22T01:21:52.111Z,4.00
2023-03-22T01:22:52.113Z,3.80
2023-03-22T01:23:52.091Z,3.40
2023-03-22T01:24:52.097Z,3.70
2023-03-22T01:25:53.013Z,4.40
2023-03-22T01:26:52.066Z,3.80
2023-03-22T01:27:52.045Z,3.50
2023-03-22T01:28:52.037Z,4.00
2023-03-22T01:29:52.032Z,3.60
2023-03-22T01:30:52.053Z,4.20
2023-03-22T01:31:52.004Z,3.40
2023-03-22T01:32:52.006Z,3.70
2023-03-22T01:33:51.985Z,4.40
2023-03-22T01:34:51.970Z,4.80
2023-03-22T01:35:52.034Z,4.10
2023-03-22T01:36:51.953Z,4.20
2023-03-22T01:37:51.950Z,4.20
2023-03-22T01:38:51.931Z,4.10
2023-03-22T01:39:51.931Z,3.90
2023-03-22T01:40:51.924Z,4.80
2023-03-22T01:41:51.905Z,4.00
2023-03-22T01:42:52.632Z,3.50
2023-03-22T01:43:51.875Z,3.60
2023-03-22T01:44:51.873Z,4.20
2023-03-22T01:45:51.915Z,4.10
2023-03-22T01:46:51.853Z,4.20
2023-03-22T01:47:51.874Z,4.00
2023-03-22T01:48:51.834Z,4.40
2023-03-22T01:49:51.830Z,4.20
2023-03-22T01:50:51.821Z,3.90
2023-03-22T01:51:51.800Z,3.60
2023-03-22T01:52:51.783Z,3.80
2023-03-22T01:53:51.774Z,4.30
2023-03-22T01:54:51.769Z,3.90
2023-03-22T01:55:51.755Z,3.70
2023-03-22T01:56:51.752Z,3.70
2023-03-22T01:57:51.725Z,4.10
2023-03-22T01:58:51.730Z,4.70
2023-03-22T01:59:51.704Z,4.40
2023-03-22T02:00:51.709Z,4.60
2023-03-22T02:01:51.701Z,4.40
2023-03-22T02:02:51.750Z,4.30
2023-03-22T02:03:51.666Z,4.10
2023-03-22T02:04:51.663Z,4.00
2023-03-22T02:05:51.648Z,5.00
2023-03-22T02:06:51.647Z,4.60
2023-03-22T02:07:51.619Z,3.60
2023-03-22T02:08:51.615Z,3.80
2023-03-22T02:09:51.610Z,3.80
2023-03-22T02:10:51.614Z,3.70
2023-03-22T02:11:51.575Z,4.10
2023-03-22T02:12:51.582Z,3.50
2023-03-22T02:13:51.556Z,3.90
2023-03-22T02:14:51.545Z,3.50
2023-03-22T02:15:51.632Z,3.70
2023-03-22T02:16:51.524Z,4.30
2023-03-22T02:17:51.528Z,4.00
2023-03-22T02:18:51.504Z,3.70
2023-03-22T02:19:51.497Z,3.60
2023-03-22T02:20:51.495Z,3.70
2023-03-22T02:21:51.467Z,4.10
2023-03-22T02:22:51.463Z,4.00
2023-03-22T02:23:51.462Z,3.60
2023-03-22T02:24:51.463Z,4.00
2023-03-22T02:25:51.438Z,3.70
2023-03-22T02:26:51.417Z,4.20
2023-03-22T02:27:51.409Z,4.60
2023-03-22T02:28:51.398Z,4.40
2023-03-22T02:29:51.384Z,3.90
2023-03-22T02:30:51.448Z,4.20
2023-03-22T02:31:51.368Z,4.00
2023-03-22T02:32:51.358Z,3.90
2023-03-22T02:33:51.341Z,4.40
2023-03-22T02:34:51.337Z,4.80
2023-03-22T02:35:51.364Z,3.40
2023-03-22T02:36:51.320Z,3.40
2023-03-22T02:37:51.294Z,3.80
2023-03-22T02:38:51.294Z,4.10
2023-03-22T02:39:51.271Z,3.60
2023-03-22T02:40:51.273Z,3.90
2023-03-22T02:41:51.255Z,4.20
2023-03-22T02:42:51.245Z,3.90
2023-03-22T02:43:51.227Z,4.10
2023-03-22T02:44:51.226Z,4.30
2023-03-22T02:45:51.219Z,4.10
2023-03-22T02:46:51.199Z,4.40
2023-03-22T02:47:52.190Z,4.30
2023-03-22T02:48:51.190Z,4.40
2023-03-22T02:49:51.161Z,3.30
2023-03-22T02:50:51.169Z,3.80
2023-03-22T02:51:51.142Z,4.60
2023-03-22T02:52:51.153Z,3.90
2023-03-22T02:53:51.129Z,3.50
2023-03-22T02:54:51.111Z,4.30
2023-03-22T02:55:51.101Z,4.10
2023-03-22T02:56:51.091Z,3.90
2023-03-22T02:57:51.089Z,4.40
2023-03-22T02:58:51.083Z,4.20
2023-03-22T02:59:51.057Z,4.30
2023-03-22T03:00:51.172Z,4.00
2023-03-22T03:01:51.073Z,4.90
2023-03-22T03:02:51.037Z,3.90
2023-03-22T03:03:51.023Z,4.00
2023-03-22T03:04:51.008Z,4.00
2023-03-22T03:05:51.042Z,4.20
2023-03-22T03:06:50.982Z,4.10
2023-03-22T03:07:50.971Z,4.80
2023-03-22T03:08:50.969Z,3.90
2023-03-22T03:09:50.957Z,3.90
2023-03-22T03:10:50.942Z,4.30
2023-03-22T03:11:50.921Z,3.60
2023-03-22T03:12:50.922Z,4.30
2023-03-22T03:13:50.899Z,4.40
2023-03-22T03:14:50.892Z,3.40
2023-03-22T03:15:50.877Z,4.30
2023-03-22T03:16:50.873Z,3.80
2023-03-22T03:17:50.875Z,3.70
2023-03-22T03:18:50.854Z,3.10
2023-03-22T03:19:50.835Z,4.20
2023-03-22T03:20:50.837Z,4.00
2023-03-22T03:21:50.815Z,4.30
2023-03-22T03:22:50.842Z,4.00
2023-03-22T03:23:50.793Z,4.10
2023-03-22T03:24:50.785Z,3.90
2023-03-22T03:25:50.778Z,3.90
2023-03-22T03:26:50.772Z,3.90
2023-03-22T03:27:50.749Z,3.50
2023-03-22T03:28:50.751Z,3.20
2023-03-22T03:29:50.727Z,4.00
2023-03-22T03:30:50.719Z,4.30
2023-03-22T03:31:50.744Z,4.00
2023-03-22T03:32:50.701Z,4.00
2023-03-22T03:33:50.690Z,4.20
2023-03-22T03:34:50.679Z,4.30
2023-03-22T03:35:50.741Z,4.20
2023-03-22T03:36:50.654Z,4.60
2023-03-22T03:37:50.642Z,3.50
2023-03-22T03:38:50.636Z,4.00
2023-03-22T03:39:50.631Z,4.20
2023-03-22T03:40:50.621Z,3.90
2023-03-22T03:41:50.597Z,3.90
2023-03-22T03:42:50.593Z,4.10
2023-03-22T03:43:50.577Z,4.00
2023-03-22T03:44:50.583Z,4.80
2023-03-22T03:45:50.632Z,3.80
2023-03-22T03:46:50.546Z,4.10
2023-03-22T03:47:50.546Z,3.80
2023-03-22T03:48:50.523Z,4.20
2023-03-22T03:49:50.509Z,4.20
2023-03-22T03:50:50.509Z,4.30
2023-03-22T03:51:50.490Z,4.00
2023-03-22T03:52:50.550Z,4.20
2023-03-22T03:53:50.463Z,3.70
2023-03-22T03:54:50.458Z,4.40
2023-03-22T03:55:50.459Z,3.80
2023-03-22T03:56:50.460Z,3.60
2023-03-22T03:57:50.422Z,3.80
2023-03-22T03:58:50.425Z,4.20
2023-03-22T03:59:50.403Z,3.60
2023-03-22T04:00:50.408Z,4.50
2023-03-22T04:01:50.657Z,3.70
2023-03-22T04:02:50.399Z,3.60
2023-03-22T04:03:50.356Z,3.70
2023-03-22T04:04:50.392Z,3.40
2023-03-22T04:05:50.346Z,4.40
2023-03-22T04:06:50.331Z,3.80
2023-03-22T04:07:50.317Z,3.20
2023-03-22T04:08:50.310Z,3.40
2023-03-22T04:09:50.293Z,4.30
2023-03-22T04:10:50.299Z,4.20
2023-03-22T04:11:50.269Z,3.60
2023-03-22T04:12:50.265Z,4.10
2023-03-22T04:13:50.258Z,4.10
2023-03-22T04:14:50.254Z,4.20
2023-03-22T04:15:50.225Z,4.40
2023-03-22T04:16:50.232Z,3.60
2023-03-22T04:17:50.204Z,3.40
2023-03-22T04:18:50.200Z,3.70
2023-03-22T04:19:50.200Z,4.00
2023-03-22T04:20:50.179Z,4.00
2023-03-22T04:21:50.174Z,4.00
2023-03-22T04:22:50.160Z,3.90
2023-03-22T04:23:50.140Z,3.40
2023-03-22T04:24:50.155Z,4.00
2023-03-22T04:25:50.131Z,3.70
2023-03-22T04:26:50.114Z,4.30
2023-03-22T04:27:50.102Z,3.60
2023-03-22T04:28:50.093Z,3.80
2023-03-22T04:29:50.081Z,4.20
2023-03-22T04:30:50.166Z,3.90
2023-03-22T04:31:50.067Z,4.10
2023-03-22T04:32:50.037Z,3.80
2023-03-22T04:33:50.038Z,4.70
2023-03-22T04:34:50.019Z,3.60
2023-03-22T04:35:50.054Z,3.50
2023-03-22T04:36:49.998Z,3.30
2023-03-22T04:37:49.993Z,3.80
2023-03-22T04:38:49.974Z,3.60
2023-03-22T04:39:49.977Z,3.80
2023-03-22T04:40:49.952Z,3.70
2023-03-22T04:41:49.954Z,4.40
2023-03-22T04:42:49.975Z,3.80
2023-03-22T04:43:49.929Z,3.80
2023-03-22T04:44:49.915Z,3.40
2023-03-22T04:45:49.913Z,3.70
2023-03-22T04:46:49.902Z,3.50
2023-03-22T04:47:49.925Z,3.60
2023-03-22T04:48:49.875Z,3.50
2023-03-22T04:49:49.862Z,3.80
2023-03-22T04:50:49.844Z,3.90
2023-03-22T04:51:49.848Z,3.80
2023-03-22T04:52:49.832Z,3.90
2023-03-22T04:53:49.820Z,3.70
2023-03-22T04:54:49.801Z,3.60
2023-03-22T04:55:49.817Z,3.30
2023-03-22T04:56:49.794Z,4.10
2023-03-22T04:57:49.785Z,3.50
2023-03-22T04:58:49.768Z,3.60
2023-03-22T04:59:49.753Z,3.60
2023-03-22T05:00:49.740Z,4.00
2023-03-22T05:01:49.805Z,3.20
2023-03-22T05:02:49.781Z,3.80
2023-03-22T05:03:49.721Z,3.50
2023-03-22T05:04:49.715Z,3.40
2023-03-22T05:05:49.710Z,4.00
2023-03-22T05:06:49.689Z,3.80
2023-03-22T05:07:49.708Z,3.60
2023-03-22T05:08:49.650Z,3.00
2023-03-22T05:09:49.646Z,3.90
2023-03-22T05:10:49.630Z,3.80
2023-03-22T05:11:49.638Z,3.70
2023-03-22T05:12:49.631Z,3.90
2023-03-22T05:13:49.601Z,3.90
2023-03-22T05:14:49.638Z,3.70
2023-03-22T05:15:49.699Z,3.80
2023-03-22T05:16:49.582Z,4.00
2023-03-22T05:17:49.559Z,3.40
2023-03-22T05:18:49.558Z,3.90
2023-03-22T05:19:49.542Z,3.20
2023-03-22T05:20:49.515Z,4.10
2023-03-22T05:21:49.522Z,3.70
2023-03-22T05:22:49.513Z,3.30
2023-03-22T05:23:51.441Z,3.40
2023-03-22T05:24:49.472Z,3.00
2023-03-22T05:25:49.470Z,3.90
2023-03-22T05:26:49.464Z,3.60
2023-03-22T05:27:49.445Z,4.00
2023-03-22T05:28:49.441Z,3.00
2023-03-22T05:29:49.434Z,4.30
2023-03-22T05:30:49.420Z,3.60
2023-03-22T05:31:49.478Z,3.20
2023-03-22T05:32:49.387Z,3.70
2023-03-22T05:33:49.390Z,3.90
2023-03-22T05:34:49.372Z,3.20
2023-03-22T05:35:49.370Z,3.20
2023-03-22T05:36:49.356Z,3.50
2023-03-22T05:37:49.352Z,3.40
2023-03-22T05:38:49.330Z,3.70
2023-03-22T05:39:49.330Z,3.00
2023-03-22T05:40:49.304Z,3.90
2023-03-22T05:41:49.311Z,3.40
2023-03-22T05:42:49.281Z,4.00
2023-03-22T05:43:49.289Z,3.80
2023-03-22T05:44:49.267Z,3.50
2023-03-22T05:45:49.259Z,3.90
2023-03-22T05:46:49.317Z,4.00
2023-03-22T05:47:49.352Z,3.60
2023-03-22T05:48:49.226Z,3.30
2023-03-22T05:49:49.213Z,3.70
2023-03-22T05:50:49.200Z,4.10
2023-03-22T05:51:49.195Z,3.80
2023-03-22T05:52:49.186Z,4.00
2023-03-22T05:53:49.189Z,3.70
2023-03-22T05:54:49.159Z,3.70
2023-03-22T05:55:49.165Z,3.90
2023-03-22T05:56:49.163Z,3.90
2023-03-22T05:57:49.131Z,3.80
2023-03-22T05:58:49.114Z,3.20
2023-03-22T05:59:49.116Z,3.70
2023-03-22T06:00:49.093Z,4.00
2023-03-22T06:01:49.150Z,3.00
2023-03-22T06:02:49.170Z,3.40
2023-03-22T06:03:49.063Z,3.50
2023-03-22T06:04:49.054Z,3.80
2023-03-22T06:05:49.039Z,3.80
2023-03-22T06:06:49.039Z,2.90
2023-03-22T06:07:49.018Z,3.10
2023-03-22T06:08:49.010Z,3.70
2023-03-22T06:09:49.000Z,3.40
2023-03-22T06:10:48.994Z,3.50
2023-03-22T06:11:48.993Z,3.40
2023-03-22T06:12:49.002Z,3.60
2023-03-22T06:13:48.966Z,3.30
2023-03-22T06:14:48.939Z,3.20
2023-03-22T06:15:48.940Z,3.70
2023-03-22T06:16:48.971Z,3.20
2023-03-22T06:17:48.918Z,4.00
2023-03-22T06:18:48.896Z,3.50
2023-03-22T06:19:48.898Z,4.00
2023-03-22T06:20:48.877Z,3.20
2023-03-22T06:21:48.877Z,3.80
2023-03-22T06:22:48.857Z,3.40
2023-03-22T06:23:48.849Z,3.70
2023-03-22T06:24:48.834Z,3.10
2023-03-22T06:25:48.837Z,3.40
2023-03-22T06:26:48.809Z,3.90
2023-03-22T06:27:48.804Z,3.40
2023-03-22T06:28:48.789Z,3.60
2023-03-22T06:29:48.786Z,3.70
2023-03-22T06:30:48.786Z,3.40
2023-03-22T06:31:48.760Z,3.20
2023-03-22T06:32:48.738Z,3.80
2023-03-22T06:33:48.735Z,3.70
2023-03-22T06:34:48.716Z,3.70
2023-03-22T06:35:48.763Z,2.80
2023-03-22T06:36:48.700Z,3.20
2023-03-22T06:37:48.685Z,3.40
2023-03-22T06:38:48.675Z,3.60
2023-03-22T06:39:48.663Z,4.50
2023-03-22T06:40:48.648Z,3.70
2023-03-22T06:41:48.647Z,4.00
2023-03-22T06:42:48.626Z,4.00
2023-03-22T06:43:48.617Z,3.60
2023-03-22T06:44:48.605Z,3.60
2023-03-22T06:45:48.631Z,3.50
2023-03-22T06:46:48.599Z,3.70
2023-03-22T06:47:48.653Z,3.10
2023-03-22T06:48:48.559Z,4.30
2023-03-22T06:49:48.553Z,3.40
2023-03-22T06:50:48.550Z,3.90
2023-03-22T06:51:48.539Z,3.50
2023-03-22T06:52:48.517Z,4.00
2023-03-22T06:53:48.509Z,4.10
2023-03-22T06:54:48.497Z,3.60
2023-03-22T06:55:48.502Z,3.50
2023-03-22T06:56:48.468Z,2.90
2023-03-22T06:57:48.467Z,3.10
2023-03-22T06:58:48.448Z,3.50
2023-03-22T06:59:48.446Z,3.80
2023-03-22T07:00:48.430Z,3.40
2023-03-22T07:01:48.446Z,3.80
2023-03-22T07:02:49.938Z,3.90
2023-03-22T07:03:48.395Z,4.20
2023-03-22T07:04:48.551Z,3.30
2023-03-22T07:05:48.384Z,3.60
2023-03-22T07:06:48.379Z,3.80
2023-03-22T07:07:48.362Z,3.10
2023-03-22T07:08:50.143Z,3.90
2023-03-22T07:09:48.412Z,3.50
2023-03-22T07:10:48.320Z,3.40
2023-03-22T07:11:48.321Z,3.40
2023-03-22T07:12:48.299Z,3.30
2023-03-22T07:13:48.301Z,2.90
2023-03-22T07:14:48.278Z,3.80
2023-03-22T07:15:48.296Z,3.30
2023-03-22T07:16:48.265Z,3.70
2023-03-22T07:17:48.248Z,3.90
2023-03-22T07:18:48.280Z,4.40
2023-03-22T07:19:48.238Z,3.80
2023-03-22T07:20:48.209Z,3.20
2023-03-22T07:21:48.217Z,3.80
2023-03-22T07:22:48.192Z,3.60
2023-03-22T07:23:48.186Z,3.80
2023-03-22T07:24:56.718Z,3.70
2023-03-22T07:25:48.172Z,3.60
2023-03-22T07:26:48.158Z,3.70
2023-03-22T07:27:48.094Z,3.50
2023-03-22T07:28:48.077Z,3.00
2023-03-22T07:29:48.062Z,3.40
2023-03-22T07:30:48.052Z,3.10
2023-03-22T07:31:48.096Z,4.00
2023-03-22T07:32:48.028Z,4.20
2023-03-22T07:33:48.045Z,3.60
2023-03-22T07:34:48.006Z,4.30
2023-03-22T07:35:48.016Z,4.40
2023-03-22T07:36:48.002Z,4.40
2023-03-22T07:37:47.980Z,4.10
2023-03-22T07:38:47.985Z,4.60
2023-03-22T07:39:47.959Z,6.40
2023-03-22T07:40:48.168Z,5.90
2023-03-22T07:41:47.945Z,7.70
2023-03-22T07:42:47.943Z,5.50
2023-03-22T07:43:55.449Z,5.60
2023-03-22T07:44:48.117Z,8.10
2023-03-22T07:45:47.897Z,6.30
2023-03-22T07:46:47.976Z,4.70
2023-03-22T07:47:47.881Z,6.80
2023-03-22T07:48:47.865Z,6.90
2023-03-22T07:49:47.870Z,7.00
2023-03-22T07:50:47.842Z,7.00
2023-03-22T07:51:47.854Z,7.10
2023-03-22T07:52:47.827Z,5.50
2023-03-22T07:53:47.815Z,5.60
2023-03-22T07:54:47.801Z,5.10
2023-03-22T07:55:47.794Z,5.90
2023-03-22T07:56:47.791Z,7.10
2023-03-22T07:57:47.771Z,6.20
2023-03-22T07:58:47.867Z,6.60
2023-03-22T07:59:47.758Z,5.80
2023-03-22T08:00:47.989Z,7.10
2023-03-22T08:01:47.779Z,6.10
2023-03-22T08:02:47.797Z,9.40
2023-03-22T08:03:47.717Z,7.30
2023-03-22T08:04:56.223Z,11.30
2023-03-22T08:05:47.704Z,9.00
2023-03-22T08:06:47.680Z,10.10
2023-03-22T08:07:47.663Z,6.40
2023-03-22T08:08:47.647Z,8.60
2023-03-22T08:09:47.658Z,8.80
2023-03-22T08:10:47.628Z,5.40
2023-03-22T08:11:47.623Z,8.10
2023-03-22T08:12:47.619Z,7.50
2023-03-22T08:13:47.598Z,5.70
2023-03-22T08:14:47.581Z,6.00
2023-03-22T08:15:47.597Z,6.00
2023-03-22T08:16:47.650Z,5.50
2023-03-22T08:17:47.557Z,5.20
2023-03-22T08:18:47.540Z,7.90
2023-03-22T08:19:47.553Z,7.30
2023-03-22T08:20:47.523Z,7.70
2023-03-22T08:21:47.526Z,7.60
2023-03-22T08:22:47.500Z,6.20
2023-03-22T08:23:48.869Z,6.50
2023-03-22T08:24:47.483Z,6.80
2023-03-22T08:25:47.469Z,7.50
2023-03-22T08:26:47.469Z,5.80
2023-03-22T08:27:47.454Z,6.80
2023-03-22T08:28:47.667Z,7.00
2023-03-22T08:29:47.451Z,6.80
2023-03-22T08:30:47.419Z,5.70
2023-03-22T08:31:47.517Z,6.30
2023-03-22T08:32:47.398Z,7.40
2023-03-22T08:33:47.417Z,5.80
2023-03-22T08:34:47.380Z,6.90
2023-03-22T08:35:47.411Z,5.10
2023-03-22T08:36:47.360Z,5.80
2023-03-22T08:37:47.340Z,6.00
2023-03-22T08:38:47.339Z,6.00
2023-03-22T08:39:47.336Z,8.20
2023-03-22T08:40:47.322Z,5.20
2023-03-22T08:41:47.304Z,6.50
2023-03-22T08:42:47.301Z,6.80
2023-03-22T08:43:47.293Z,4.90
2023-03-22T08:44:47.282Z,5.60
2023-03-22T08:45:47.306Z,6.70
2023-03-22T08:46:47.258Z,6.00
2023-03-22T08:47:47.291Z,5.60
2023-03-22T08:48:47.236Z,6.20
2023-03-22T08:49:47.212Z,5.20
2023-03-22T08:50:47.212Z,7.60
2023-03-22T08:51:47.222Z,7.10
2023-03-22T08:52:47.199Z,5.00
2023-03-22T08:53:47.180Z,5.90
2023-03-22T08:54:47.174Z,6.00
2023-03-22T08:55:47.154Z,5.80
2023-03-22T08:56:47.151Z,4.70
2023-03-22T08:57:47.249Z,5.30
2023-03-22T08:58:47.126Z,4.80
2023-03-22T08:59:47.116Z,5.70
2023-03-22T09:00:49.484Z,6.00
2023-03-22T09:01:47.284Z,4.50
2023-03-22T09:02:47.087Z,4.80
2023-03-22T09:03:47.070Z,5.10
2023-03-22T09:04:47.191Z,7.70
2023-03-22T09:05:47.045Z,7.40
2023-03-22T09:06:47.094Z,5.50
2023-03-22T09:07:47.032Z,5.80
2023-03-22T09:08:47.049Z,6.40
2023-03-22T09:09:47.016Z,6.80
2023-03-22T09:10:46.993Z,7.80
2023-03-22T09:11:46.996Z,5.60
2023-03-22T09:12:46.975Z,7.50
2023-03-22T09:13:46.970Z,6.50
2023-03-22T09:14:46.968Z,6.30
2023-03-22T09:15:47.052Z,7.90
2023-03-22T09:16:46.935Z,6.30
2023-03-22T09:17:47.700Z,6.80
2023-03-22T09:18:46.934Z,5.70
2023-03-22T09:19:46.902Z,7.40
2023-03-22T09:20:46.903Z,6.60
2023-03-22T09:21:46.877Z,6.90
2023-03-22T09:22:46.897Z,6.60
2023-03-22T09:23:46.855Z,5.80
2023-03-22T09:24:46.850Z,5.60
2023-03-22T09:25:46.922Z,7.80
2023-03-22T09:26:46.854Z,7.30
2023-03-22T09:27:46.809Z,5.40
2023-03-22T09:28:46.999Z,5.50
2023-03-22T09:29:46.816Z,7.10
2023-03-22T09:30:46.856Z,7.00
2023-03-22T09:31:46.768Z,7.40
2023-03-22T09:32:46.763Z,5.80
2023-03-22T09:33:46.748Z,4.50
2023-03-22T09:34:46.818Z,6.90
2023-03-22T09:35:46.799Z,5.90
2023-03-22T09:36:46.729Z,6.50
2023-03-22T09:37:46.705Z,4.80
2023-03-22T09:38:46.709Z,6.30
2023-03-22T09:39:46.690Z,6.00
2023-03-22T09:40:46.687Z,7.30
2023-03-22T09:41:46.675Z,5.20
2023-03-22T09:42:46.663Z,5.60
2023-03-22T09:43:46.647Z,6.10
2023-03-22T09:44:46.654Z,5.60
2023-03-22T09:45:46.625Z,5.10
2023-03-22T09:46:46.618Z,6.10
2023-03-22T09:47:46.668Z,6.10
2023-03-22T09:48:48.267Z,5.90
2023-03-22T09:49:53.327Z,7.50
2023-03-22T09:50:46.585Z,7.60
2023-03-22T09:51:46.585Z,6.70
2023-03-22T09:52:46.565Z,6.70
2023-03-22T09:53:46.544Z,6.20
2023-03-22T09:54:46.530Z,6.90
2023-03-22T09:55:46.525Z,6.20
2023-03-22T09:56:46.523Z,5.80
2023-03-22T09:57:46.506Z,6.30
2023-03-22T09:58:46.523Z,7.10
2023-03-22T09:59:46.475Z,7.30
2023-03-22T10:00:46.527Z,7.20
2023-03-22T10:01:46.721Z,6.80
2023-03-22T10:02:46.574Z,6.50
2023-03-22T10:03:46.459Z,7.30
2023-03-22T10:04:46.453Z,5.90
2023-03-22T10:05:46.417Z,6.90
2023-03-22T10:06:46.404Z,7.00
2023-03-22T10:07:46.390Z,7.60
2023-03-22T10:08:46.391Z,7.30
2023-03-22T10:09:46.396Z,7.20
2023-03-22T10:10:46.365Z,5.50
2023-03-22T10:11:46.458Z,6.00
2023-03-22T10:12:46.364Z,5.90
2023-03-22T10:13:46.327Z,6.40
2023-03-22T10:14:46.325Z,6.60
2023-03-22T10:15:46.377Z,6.10
2023-03-22T10:16:46.317Z,6.40
2023-03-22T10:17:46.288Z,6.10
2023-03-22T10:18:46.287Z,6.80
2023-03-22T10:19:46.306Z,5.40
2023-03-22T10:20:46.321Z,6.40
2023-03-22T10:21:46.255Z,5.50
2023-03-22T10:22:46.314Z,6.10
2023-03-22T10:23:46.262Z,6.10
2023-03-22T10:24:46.227Z,6.70
2023-03-22T10:25:46.213Z,7.80
2023-03-22T10:26:46.208Z,6.60
2023-03-22T10:27:46.191Z,6.70
2023-03-22T10:28:46.192Z,5.70
2023-03-22T10:29:46.186Z,7.40
2023-03-22T10:30:46.152Z,6.50
2023-03-22T10:31:46.247Z,6.10
2023-03-22T10:32:57.109Z,5.50
2023-03-22T10:33:46.129Z,7.50
2023-03-22T10:34:46.123Z,5.90
2023-03-22T10:35:46.115Z,6.40
2023-03-22T10:36:46.103Z,8.40
2023-03-22T10:37:46.084Z,6.30
2023-03-22T10:38:46.079Z,7.10
2023-03-22T10:39:46.109Z,6.40
2023-03-22T10:40:46.069Z,6.40
2023-03-22T10:41:46.056Z,5.40
2023-03-22T10:42:46.030Z,6.40
2023-03-22T10:43:46.023Z,8.10
2023-03-22T10:44:46.005Z,6.00
2023-03-22T10:45:46.010Z,6.20
2023-03-22T10:46:46.100Z,6.00
2023-03-22T10:47:46.100Z,7.30
2023-03-22T10:48:45.982Z,6.60
2023-03-22T10:49:45.999Z,7.50
2023-03-22T10:50:45.960Z,7.30
2023-03-22T10:51:45.933Z,6.10
2023-03-22T10:52:45.934Z,6.80
2023-03-22T10:53:45.914Z,5.70
2023-03-22T10:54:45.914Z,6.20
2023-03-22T10:55:45.893Z,6.50
2023-03-22T10:56:46.294Z,6.00
2023-03-22T10:57:45.876Z,6.50
2023-03-22T10:58:45.877Z,5.80
2023-03-22T10:59:45.849Z,6.20
2023-03-22T11:00:45.926Z,5.00
2023-03-22T11:01:46.097Z,7.70
2023-03-22T11:02:45.884Z,5.50
2023-03-22T11:03:45.818Z,5.40
2023-03-22T11:04:45.806Z,6.50
2023-03-22T11:05:45.789Z,6.00
2023-03-22T11:06:45.802Z,6.20
2023-03-22T11:07:45.767Z,6.70
2023-03-22T11:08:45.768Z,5.50
2023-03-22T11:09:45.754Z,6.60
2023-03-22T11:10:45.876Z,5.40
2023-03-22T11:11:45.728Z,5.90
2023-03-22T11:12:45.727Z,5.20
2023-03-22T11:13:45.710Z,6.60
2023-03-22T11:14:45.700Z,6.30
2023-03-22T11:15:45.703Z,5.70
2023-03-22T11:16:45.777Z,5.20
2023-03-22T11:17:45.672Z,6.50
2023-03-22T11:18:45.660Z,5.10
2023-03-22T11:19:45.642Z,6.10
2023-03-22T11:20:45.718Z,5.50
2023-03-22T11:21:45.645Z,7.70
2023-03-22T11:22:45.644Z,7.10
2023-03-22T11:23:45.606Z,4.90
2023-03-22T11:24:45.592Z,6.50
2023-03-22T11:25:45.581Z,5.30
2023-03-22T11:26:45.585Z,5.40
2023-03-22T11:27:45.630Z,5.40
2023-03-22T11:28:45.550Z,6.70
2023-03-22T11:29:45.561Z,6.80
2023-03-22T11:30:45.544Z,5.80
2023-03-22T11:31:45.558Z,4.40
2023-03-22T11:32:45.609Z,5.70
2023-03-22T11:33:45.493Z,5.40
2023-03-22T11:34:45.490Z,8.00
2023-03-22T11:35:45.541Z,5.90
2023-03-22T11:36:45.472Z,7.20
2023-03-22T11:37:45.468Z,6.60
2023-03-22T11:38:46.372Z,6.20
2023-03-22T11:39:45.441Z,6.20
2023-03-22T11:40:45.439Z,5.40
2023-03-22T11:41:45.431Z,5.90
2023-03-22T11:42:45.414Z,6.10
2023-03-22T11:43:45.401Z,6.00
2023-03-22T11:44:46.358Z,8.60
2023-03-22T11:45:45.428Z,7.40
2023-03-22T11:46:45.376Z,7.30
2023-03-22T11:47:45.443Z,7.80
2023-03-22T11:48:45.472Z,5.80
2023-03-22T11:49:45.340Z,7.50
2023-03-22T11:50:45.329Z,7.30
2023-03-22T11:51:45.338Z,7.60
2023-03-22T11:52:45.308Z,5.30
2023-03-22T11:53:45.298Z,6.20
2023-03-22T11:54:45.281Z,6.70
2023-03-22T11:55:45.276Z,5.70
2023-03-22T11:56:45.311Z,6.00
2023-03-22T11:57:45.260Z,7.10
2023-03-22T11:58:45.248Z,7.10
2023-03-22T11:59:45.224Z,7.80
2023-03-22T12:00:45.226Z,6.70
2023-03-22T12:01:45.229Z,7.00
2023-03-22T12:02:45.366Z,6.70
2023-03-22T12:03:45.334Z,7.70
2023-03-22T12:04:45.243Z,7.20
2023-03-22T12:05:45.202Z,8.30
2023-03-22T12:06:45.192Z,7.10
2023-03-22T12:07:45.151Z,8.00
2023-03-22T12:08:45.197Z,5.70
2023-03-22T12:09:45.143Z,7.30
2023-03-22T12:10:45.115Z,8.10
2023-03-22T12:11:45.095Z,6.70
2023-03-22T12:12:45.102Z,6.70
2023-03-22T12:13:45.081Z,6.40
2023-03-22T12:14:45.091Z,5.50
2023-03-22T12:15:45.432Z,6.90
2023-03-22T12:16:45.091Z,6.50
2023-03-22T12:17:45.095Z,7.30
2023-03-22T12:18:45.035Z,7.30
2023-03-22T12:19:45.016Z,7.70
2023-03-22T12:20:45.051Z,6.90
2023-03-22T12:21:44.998Z,5.90
2023-03-22T12:22:44.999Z,7.80
2023-03-22T12:23:44.979Z,8.40
2023-03-22T12:24:44.967Z,7.50
2023-03-22T12:25:44.954Z,7.60
2023-03-22T12:26:44.948Z,7.30
2023-03-22T12:27:44.956Z,7.30
2023-03-22T12:28:44.928Z,8.50
2023-03-22T12:29:44.927Z,6.50
2023-03-22T12:30:44.916Z,7.00
2023-03-22T12:31:44.999Z,8.20
2023-03-22T12:32:44.991Z,8.60
2023-03-22T12:33:44.879Z,8.20
2023-03-22T12:34:44.948Z,6.30
2023-03-22T12:35:44.871Z,6.70
2023-03-22T12:36:44.853Z,5.90
2023-03-22T12:37:44.846Z,8.30
2023-03-22T12:38:44.841Z,7.30
2023-03-22T12:39:44.810Z,8.70
2023-03-22T12:40:44.803Z,5.70
2023-03-22T12:41:44.787Z,7.30
2023-03-22T12:42:51.132Z,6.30
2023-03-22T12:43:44.785Z,6.10
2023-03-22T12:44:50.051Z,7.10
2023-03-22T12:45:44.753Z,5.50
2023-03-22T12:46:44.784Z,6.90
2023-03-22T12:47:44.787Z,6.50
2023-03-22T12:48:46.543Z,6.90
2023-03-22T12:49:44.717Z,5.40
2023-03-22T12:50:44.723Z,6.60
2023-03-22T12:51:44.705Z,7.80
2023-03-22T12:52:45.951Z,5.80
2023-03-22T12:53:44.676Z,5.60
2023-03-22T12:54:44.669Z,6.10
2023-03-22T12:55:45.020Z,6.70
2023-03-22T12:56:44.653Z,7.10
2023-03-22T12:57:44.637Z,6.00
2023-03-22T12:58:45.398Z,6.80
2023-03-22T12:59:44.605Z,5.30
2023-03-22T13:00:44.656Z,7.70
2023-03-22T13:01:44.613Z,5.70
2023-03-22T13:02:44.674Z,6.30
2023-03-22T13:03:44.736Z,6.30
2023-03-22T13:04:44.563Z,5.60
2023-03-22T13:05:44.552Z,9.20
2023-03-22T13:06:44.532Z,6.20
2023-03-22T13:07:44.532Z,7.10
2023-03-22T13:08:44.507Z,7.00
2023-03-22T13:09:44.536Z,9.00
2023-03-22T13:10:44.499Z,5.50
2023-03-22T13:11:44.513Z,7.00
2023-03-22T13:12:44.463Z,5.80
2023-03-22T13:13:44.461Z,6.10
2023-03-22T13:14:44.466Z,5.60
2023-03-22T13:15:44.451Z,6.00
2023-03-22T13:16:44.430Z,6.80
2023-03-22T13:17:44.441Z,6.10
2023-03-22T13:18:44.408Z,8.00